Time;durP1;ratioP1;P1;durP2;ratioP2;P2;SDS_P1;SDS_P2;PMS_P1;PMS_P2;Temp;Humidity;BMP_temperature;BMP_pressure;BME280_temperature;BME280_humidity;BME280_pressure;Samples;Min_cycle;Max_cycle;Signal;HPM_P1;HPM_P2
2023/08/03 00:00:06;;;;;;;10.73;3.30;;;;;;;28.53;44.95;99174.66;5094188;28;20123;-76
2023/08/03 00:02:35;;;;;;;10.23;2.67;;;;;;;28.53;45.09;99171.97;5094446;28;20028;-76
2023/08/03 00:05:04;;;;;;;9.32;2.85;;;;;;;28.53;45.44;99161.25;5094497;28;20439;-76
2023/08/03 00:07:30;;;;;;;8.98;2.60;;;;;;;28.54;45.08;99168.28;5094090;28;20111;-76
2023/08/03 00:09:55;;;;;;;9.38;3.10;;;;;;;28.52;45.40;99175.66;5094164;28;20017;-76
2023/08/03 00:12:22;;;;;;;9.80;3.10;;;;;;;28.50;45.16;99183.00;5093710;28;20020;-77
2023/08/03 00:14:49;;;;;;;8.68;2.63;;;;;;;28.50;45.10;99166.88;5094170;28;20047;-76
2023/08/03 00:17:14;;;;;;;10.10;2.67;;;;;;;28.50;45.01;99166.88;5092917;28;20020;-77
2023/08/03 00:19:39;;;;;;;10.43;3.03;;;;;;;28.48;45.06;99163.53;5093087;28;20016;-77
2023/08/03 00:22:05;;;;;;;8.52;2.55;;;;;;;28.47;45.08;99167.22;5094047;28;20020;-76
2023/08/03 00:24:30;;;;;;;8.85;2.83;;;;;;;28.47;45.11;99167.22;5093430;28;20024;-76
2023/08/03 00:26:56;;;;;;;8.52;2.70;;;;;;;28.45;45.51;99166.50;5093146;28;20020;-77
2023/08/03 00:29:21;;;;;;;6.75;2.22;;;;;;;28.45;45.20;99158.44;5094031;28;20150;-76
2023/08/03 00:31:47;;;;;;;9.30;2.97;;;;;;;28.45;45.25;99155.75;5093994;28;20027;-76
2023/08/03 00:34:12;;;;;;;10.52;2.70;;;;;;;28.47;45.11;99159.16;5093761;28;20084;-77
2023/08/03 00:36:38;;;;;;;7.82;2.58;;;;;;;28.46;45.42;99162.84;5093873;28;20027;-76
2023/08/03 00:39:04;;;;;;;10.27;3.00;;;;;;;28.44;45.50;99162.13;5093661;28;20020;-76
2023/08/03 00:41:30;;;;;;;9.90;2.75;;;;;;;28.42;45.51;99167.63;5093404;28;20016;-76
2023/08/03 00:43:55;;;;;;;8.15;2.33;;;;;;;28.43;45.05;99165.81;5093604;28;20482;-77
2023/08/03 00:46:21;;;;;;;8.07;2.83;;;;;;;28.42;45.17;99164.94;5093552;28;20395;-76
2023/08/03 00:48:46;;;;;;;9.68;2.55;;;;;;;28.41;45.32;99172.19;5093494;28;20024;-76
2023/08/03 00:51:12;;;;;;;8.70;2.78;;;;;;;28.38;45.37;99164.41;5093732;28;20488;-76
2023/08/03 00:53:37;;;;;;;9.32;2.85;;;;;;;28.40;45.34;99167.81;5093366;28;20495;-77
2023/08/03 00:56:03;;;;;;;8.30;3.22;;;;;;;28.38;44.94;99156.38;5091903;28;20037;-76
2023/08/03 00:58:28;;;;;;;10.02;2.72;;;;;;;28.40;45.29;99156.22;5093568;28;20012;-76
2023/08/03 01:00:54;;;;;;;9.27;2.88;;;;;;;28.39;45.10;99166.09;5093283;28;20504;-76
2023/08/03 01:03:19;;;;;;;11.95;2.92;;;;;;;28.39;45.39;99154.53;5093175;28;20488;-76
2023/08/03 01:05:45;;;;;;;7.85;2.47;;;;;;;28.37;45.48;99157.38;5093235;28;20026;-76
2023/08/03 01:08:10;;;;;;;9.40;2.83;;;;;;;28.37;45.04;99162.72;5093298;28;20020;-76
2023/08/03 01:10:36;;;;;;;7.82;2.85;;;;;;;28.37;45.29;99152.00;5092752;28;20020;-76
2023/08/03 01:13:02;;;;;;;9.93;2.97;;;;;;;28.37;45.42;99152.00;5093009;28;20043;-76
2023/08/03 01:15:27;;;;;;;12.15;3.28;;;;;;;28.35;45.13;99158.50;5093135;28;20365;-75
2023/08/03 01:17:53;;;;;;;9.02;2.55;;;;;;;28.35;45.15;99154.00;5093044;28;20027;-76
2023/08/03 01:20:20;;;;;;;9.07;2.70;;;;;;;28.33;45.38;99155.97;5092843;28;20082;-76
2023/08/03 01:22:46;;;;;;;7.57;2.67;;;;;;;28.35;45.45;99153.13;5092936;28;20059;-77
2023/08/03 01:25:12;;;;;;;9.98;2.67;;;;;;;28.34;45.15;99152.31;5092394;28;20054;-76
2023/08/03 01:27:37;;;;;;;7.50;2.42;;;;;;;28.32;45.24;99146.22;5092645;28;20059;-76
2023/08/03 01:30:04;;;;;;;8.30;2.72;;;;;;;28.33;45.21;99139.88;5092732;28;20024;-77
2023/08/03 01:32:30;;;;;;;8.38;2.33;;;;;;;28.32;45.38;99140.88;5092781;28;20051;-76
2023/08/03 01:34:55;;;;;;;8.50;3.10;;;;;;;28.30;45.22;99140.19;5092582;28;20491;-75
2023/08/03 01:37:21;;;;;;;9.52;2.67;;;;;;;28.30;45.21;99134.81;5091437;28;20035;-76
2023/08/03 01:39:46;;;;;;;8.00;2.38;;;;;;;28.31;45.52;99135.69;5092098;28;20032;-76
2023/08/03 01:42:13;;;;;;;7.90;2.42;;;;;;;28.28;45.47;99126.91;5092635;28;20027;-77
2023/08/03 01:44:40;;;;;;;7.78;2.58;;;;;;;28.28;45.50;99143.00;5091235;28;20051;-77
2023/08/03 01:47:05;;;;;;;10.60;3.08;;;;;;;28.27;45.08;99130.59;5092557;28;20020;-76
2023/08/03 01:49:33;;;;;;;9.00;2.75;;;;;;;28.27;45.35;99140.47;5092355;28;20073;-77
2023/08/03 01:51:58;;;;;;;8.60;2.65;;;;;;;28.27;45.41;99145.84;5092231;28;20028;-76
2023/08/03 01:54:24;;;;;;;8.32;2.30;;;;;;;28.25;45.63;99143.31;5092049;28;20074;-76
2023/08/03 01:56:50;;;;;;;11.02;2.50;;;;;;;28.27;45.16;99143.16;5092260;28;20036;-77
2023/08/03 01:59:15;;;;;;;8.15;2.70;;;;;;;28.25;45.29;99142.47;5092104;28;20028;-76
2023/08/03 02:01:41;;;;;;;10.00;2.90;;;;;;;28.23;45.39;99139.94;5092182;28;20442;-76
2023/08/03 02:04:06;;;;;;;10.27;2.83;;;;;;;28.25;45.65;99139.78;5092050;28;20032;-77
2023/08/03 02:06:32;;;;;;;5.95;2.22;;;;;;;28.22;45.19;99138.25;5091967;28;20107;-76
2023/08/03 02:08:58;;;;;;;7.70;2.85;;;;;;;28.24;45.25;99140.78;5091645;28;20023;-77
2023/08/03 02:11:24;;;;;;;8.93;2.65;;;;;;;28.23;45.26;99136.41;5091991;28;20769;-76
2023/08/03 02:13:49;;;;;;;7.03;2.65;;;;;;;28.23;45.18;99139.09;5091869;28;20511;-77
2023/08/03 02:16:15;;;;;;;9.82;2.78;;;;;;;28.23;45.29;99133.72;5092048;28;20024;-76
2023/08/03 02:18:40;;;;;;;8.02;2.45;;;;;;;28.19;45.41;99138.53;5091992;28;20027;-76
2023/08/03 02:21:06;;;;;;;8.55;2.38;;;;;;;28.20;45.49;99125.94;5092225;28;20047;-76
2023/08/03 02:23:32;;;;;;;8.88;2.83;;;;;;;28.20;45.54;99123.25;5090228;28;20024;-77
2023/08/03 02:25:58;;;;;;;8.75;2.88;;;;;;;28.19;45.61;99127.78;5091234;28;20028;-76
2023/08/03 02:28:24;;;;;;;10.25;2.60;;;;;;;28.18;45.46;99130.63;5091717;28;20025;-77
2023/08/03 02:30:49;;;;;;;9.40;2.85;;;;;;;28.18;45.29;99135.97;5091854;28;20020;-76
2023/08/03 02:33:15;;;;;;;7.93;2.47;;;;;;;28.18;45.53;99133.31;5092016;28;20465;-77
2023/08/03 02:35:40;;;;;;;7.05;2.33;;;;;;;28.13;45.54;99131.06;5091848;28;20024;-76
2023/08/03 02:38:06;;;;;;;9.75;2.45;;;;;;;28.13;45.18;99134.59;5091385;28;20464;-76
2023/08/03 02:40:32;;;;;;;8.95;2.83;;;;;;;28.13;45.56;99129.22;5091737;28;20043;-76
2023/08/03 02:42:57;;;;;;;9.43;2.70;;;;;;;28.14;45.48;99130.91;5093666;28;20453;-76
2023/08/03 02:45:23;;;;;;;8.73;2.53;;;;;;;28.12;45.31;99130.22;5096071;28;20032;-76
2023/08/03 02:47:48;;;;;;;7.95;2.67;;;;;;;28.13;45.22;99129.22;5095989;28;20020;-77
2023/08/03 02:50:14;;;;;;;8.02;2.33;;;;;;;28.13;45.54;99126.53;5095524;28;20387;-77
2023/08/03 02:52:39;;;;;;;7.35;2.45;;;;;;;28.12;45.44;99126.69;5095404;28;20027;-76
2023/08/03 02:55:05;;;;;;;8.65;2.22;;;;;;;28.08;45.33;99120.78;5095683;28;20028;-77
2023/08/03 02:57:30;;;;;;;6.75;2.63;;;;;;;28.08;45.55;99123.44;5095577;28;20020;-77
2023/08/03 02:59:56;;;;;;;8.07;2.40;;;;;;;28.09;45.46;99122.44;5095615;28;20044;-76
2023/08/03 03:02:21;;;;;;;9.60;2.85;;;;;;;28.08;45.51;99120.78;5095390;28;20066;-76
2023/08/03 03:04:47;;;;;;;9.57;3.38;;;;;;;28.08;45.61;99115.41;5091191;28;20047;-77
2023/08/03 03:07:12;;;;;;;9.07;2.42;;;;;;;28.05;45.56;99118.41;5095182;28;20028;-76
2023/08/03 03:09:38;;;;;;;8.20;2.13;;;;;;;28.07;45.20;99116.41;5095421;28;20399;-75
2023/08/03 03:12:03;;;;;;;7.38;2.20;;;;;;;28.06;45.69;99117.41;5095564;28;20598;-76
2023/08/03 03:14:29;;;;;;;10.27;2.72;;;;;;;28.06;45.58;99112.03;5095250;28;20028;-77
2023/08/03 03:16:54;;;;;;;9.32;2.60;;;;;;;28.06;45.63;99124.59;5095159;28;20020;-77
2023/08/03 03:19:19;;;;;;;6.90;2.40;;;;;;;28.03;45.27;99123.06;5095542;28;20103;-77
2023/08/03 03:21:45;;;;;;;8.65;2.28;;;;;;;28.04;45.32;99124.75;5094846;28;20020;-76
2023/08/03 03:24:10;;;;;;;9.80;2.88;;;;;;;28.04;45.57;99124.75;5095095;28;20119;-76
2023/08/03 03:26:36;;;;;;;7.13;2.17;;;;;;;28.04;45.24;99130.13;5095044;28;20111;-76
2023/08/03 03:29:01;;;;;;;6.93;2.30;;;;;;;28.05;45.52;99131.81;5095030;28;20097;-76
2023/08/03 03:31:26;;;;;;;9.35;2.72;;;;;;;28.02;45.24;99137.47;5095027;28;20142;-76
2023/08/03 03:33:52;;;;;;;8.57;2.13;;;;;;;27.99;45.31;99141.28;5095149;28;20471;-78
2023/08/03 03:36:17;;;;;;;9.63;2.83;;;;;;;27.99;45.28;99132.41;5094685;28;20039;-77
2023/08/03 03:38:43;;;;;;;9.68;3.03;;;;;;;28.01;45.60;99130.41;5095087;28;20415;-76
2023/08/03 03:41:08;;;;;;;8.68;2.45;;;;;;;27.99;45.61;99127.03;5095088;28;20031;-76
2023/08/03 03:43:33;;;;;;;6.65;2.50;;;;;;;28.00;45.48;99139.44;5094867;28;20031;-76
2023/08/03 03:45:59;;;;;;;9.25;2.25;;;;;;;27.98;45.51;99131.53;5093543;28;20024;-76
2023/08/03 03:48:24;;;;;;;10.13;2.72;;;;;;;27.97;45.31;99139.72;5094731;28;20031;-75
2023/08/03 03:50:50;;;;;;;9.32;3.15;;;;;;;27.98;45.31;99139.59;5094529;28;20078;-75
2023/08/03 03:53:15;;;;;;;7.65;2.47;;;;;;;27.97;45.20;99134.38;5093629;28;20361;-76
2023/08/03 03:55:41;;;;;;;7.90;2.58;;;;;;;27.95;45.62;99136.38;5094722;28;20040;-77
2023/08/03 03:58:06;;;;;;;10.00;2.65;;;;;;;27.96;45.36;99132.69;5094809;28;20033;-77
2023/08/03 04:00:37;;;;;;;7.38;2.35;;;;;;;27.93;45.29;99133.00;5094706;28;20044;-77
2023/08/03 04:03:02;;;;;;;8.02;2.40;;;;;;;27.94;45.23;99140.03;5093404;28;20065;-77
2023/08/03 04:05:28;;;;;;;8.32;2.60;;;;;;;27.91;45.61;99132.28;5094417;28;20418;-76
2023/08/03 04:07:54;;;;;;;8.25;2.42;;;;;;;27.91;45.33;99135.81;5094679;28;20031;-76
2023/08/03 04:10:19;;;;;;;5.75;1.90;;;;;;;27.88;45.36;99142.31;5093365;28;20024;-76
2023/08/03 04:12:45;;;;;;;9.10;2.83;;;;;;;27.86;45.70;99133.59;5094381;28;20031;-76
2023/08/03 04:15:10;;;;;;;6.40;2.20;;;;;;;27.87;45.46;99140.63;5094514;28;20103;-76
2023/08/03 04:17:37;;;;;;;9.02;2.80;;;;;;;27.82;45.40;99142.91;5094639;28;20028;-76
2023/08/03 04:20:03;;;;;;;8.18;2.25;;;;;;;27.79;45.37;99131.63;5093601;28;20024;-76
2023/08/03 04:22:28;;;;;;;6.30;2.35;;;;;;;27.83;45.39;99136.53;5094433;28;20016;-77
2023/08/03 04:24:54;;;;;;;7.55;2.35;;;;;;;27.81;45.62;99146.59;5094410;28;20115;-77
2023/08/03 04:27:19;;;;;;;8.30;2.80;;;;;;;27.79;45.46;99151.22;5094199;28;20024;-76
2023/08/03 04:29:44;;;;;;;7.10;2.10;;;;;;;27.80;45.64;99149.41;5094147;28;20126;-77
2023/08/03 04:32:10;;;;;;;9.00;2.25;;;;;;;27.76;45.35;99143.50;5094323;28;20024;-76
2023/08/03 04:34:35;;;;;;;6.20;2.20;;;;;;;27.71;45.55;99143.09;5093893;28;20142;-77
2023/08/03 04:37:01;;;;;;;6.68;2.15;;;;;;;27.72;45.46;99142.94;5094245;28;20423;-77
2023/08/03 04:39:26;;;;;;;8.30;2.28;;;;;;;27.74;45.67;99150.81;5093925;28;20051;-77
2023/08/03 04:41:51;;;;;;;9.27;2.10;;;;;;;27.74;45.31;99145.44;5093930;28;20035;-76
2023/08/03 04:44:17;;;;;;;7.28;1.80;;;;;;;27.76;45.43;99153.34;5093933;28;20028;-76
2023/08/03 04:46:42;;;;;;;6.60;2.00;;;;;;;27.77;45.55;99145.19;5093880;28;20464;-77
2023/08/03 04:49:10;;;;;;;8.52;1.92;;;;;;;27.72;45.51;99152.81;5093380;28;20116;-76
2023/08/03 04:51:35;;;;;;;6.00;2.13;;;;;;;27.72;45.65;99155.50;5093642;28;20066;-76
2023/08/03 04:54:01;;;;;;;6.78;2.10;;;;;;;27.73;45.62;99159.84;5093639;28;20020;-76
2023/08/03 04:56:26;;;;;;;6.65;2.10;;;;;;;27.68;45.72;99151.41;5093578;28;20012;-77
2023/08/03 04:58:52;;;;;;;7.97;2.08;;;;;;;27.69;45.74;99158.47;5093353;28;20020;-76
2023/08/03 05:01:17;;;;;;;9.02;2.38;;;;;;;27.68;45.66;99160.28;5093466;28;20044;-77
2023/08/03 05:03:42;;;;;;;7.85;2.35;;;;;;;27.68;45.64;99162.97;5093036;28;20054;-76
2023/08/03 05:06:08;;;;;;;6.72;2.03;;;;;;;27.68;45.59;99162.13;5092749;28;20063;-76
2023/08/03 05:08:33;;;;;;;6.05;1.83;;;;;;;27.67;45.63;99157.75;5093525;28;20388;-76
2023/08/03 05:10:59;;;;;;;9.73;2.10;;;;;;;27.66;45.40;99159.59;5093123;28;20099;-76
2023/08/03 05:13:24;;;;;;;6.97;2.13;;;;;;;27.64;45.35;99160.75;5092914;28;20020;-77
2023/08/03 05:15:49;;;;;;;7.15;2.28;;;;;;;27.61;45.44;99160.03;5092895;28;20099;-77
2023/08/03 05:18:15;;;;;;;6.70;1.90;;;;;;;27.65;45.54;99162.44;5092823;28;20016;-77
2023/08/03 05:20:40;;;;;;;7.85;2.00;;;;;;;27.58;45.45;99154.97;5093287;28;20020;-76
2023/08/03 05:23:08;;;;;;;6.65;1.75;;;;;;;27.59;45.43;99159.34;5092954;28;20395;-77
2023/08/03 05:25:33;;;;;;;8.13;1.95;;;;;;;27.61;45.79;99156.50;5091590;28;20054;-77
2023/08/03 05:28:00;;;;;;;6.85;2.13;;;;;;;27.58;45.48;99159.47;5093222;28;20024;-77
2023/08/03 05:30:25;;;;;;;7.10;2.05;;;;;;;27.60;45.38;99174.41;5092838;28;20024;-76
2023/08/03 05:32:51;;;;;;;7.55;2.10;;;;;;;27.60;45.43;99171.72;5091990;28;20027;-77
2023/08/03 05:35:17;;;;;;;6.63;2.13;;;;;;;27.55;45.58;99179.31;5093208;28;20021;-77
2023/08/03 05:37:42;;;;;;;7.35;2.25;;;;;;;27.55;45.78;99178.50;5093023;28;20028;-77
2023/08/03 05:40:08;;;;;;;6.13;1.80;;;;;;;27.56;45.43;99185.53;5092783;28;20020;-76
2023/08/03 05:42:38;;;;;;;7.55;2.55;;;;;;;27.58;45.35;99181.75;5092704;28;20407;-76
2023/08/03 05:45:10;;;;;;;8.65;2.47;;;;;;;27.55;45.92;99184.69;5078147;28;20093;-77
2023/08/03 05:47:37;;;;;;;7.32;2.40;;;;;;;27.58;45.53;99184.44;5092836;28;20023;-77
2023/08/03 05:50:10;;;;;;;8.82;2.50;;;;;;;27.52;45.65;99179.63;5092457;28;20476;-77
2023/08/03 05:52:36;;;;;;;7.97;1.80;;;;;;;27.55;45.66;99187.38;5092605;28;20032;-77
2023/08/03 05:55:02;;;;;;;9.20;2.10;;;;;;;27.52;45.71;99182.31;5092551;28;20073;-77
2023/08/03 05:57:29;;;;;;;6.78;1.77;;;;;;;27.50;45.66;99186.94;5092683;28;20020;-76
2023/08/03 05:59:54;;;;;;;7.13;2.45;;;;;;;27.50;45.49;99192.31;5090628;28;20523;-77
2023/08/03 06:02:32;;;;;;;7.50;1.95;;;;;;;27.51;45.57;99199.38;5092406;28;20032;-76
2023/08/03 06:04:58;;;;;;;6.25;2.03;;;;;;;27.51;45.69;99201.19;5092474;28;20047;-75
2023/08/03 06:07:24;;;;;;;7.60;2.13;;;;;;;27.52;45.89;99195.72;5092387;28;20039;-77
2023/08/03 06:09:49;;;;;;;6.72;2.20;;;;;;;27.51;45.49;99194.03;5092459;28;20020;-76
2023/08/03 06:12:16;;;;;;;6.10;1.95;;;;;;;27.51;45.62;99194.03;5092688;28;20553;-77
2023/08/03 06:14:41;;;;;;;6.15;2.00;;;;;;;27.48;45.59;99194.28;5092079;28;20020;-77
2023/08/03 06:17:10;;;;;;;5.93;1.80;;;;;;;27.46;45.68;99201.63;5091294;28;20020;-77
2023/08/03 06:19:35;;;;;;;6.75;2.08;;;;;;;27.50;45.85;99207.56;5091962;28;20543;-77
2023/08/03 06:22:11;;;;;;;8.32;1.90;;;;;;;27.51;45.58;99199.38;5092162;28;20091;-77
2023/08/03 06:24:36;;;;;;;;;;;;;;;27.49;46.00;99206.69;5091154;28;20066;-76
2023/08/03 06:27:02;;;;;;;8.13;2.53;;;;;;;27.49;45.87;99204.03;5092238;28;19978;-77
2023/08/03 06:29:27;;;;;;;6.88;1.80;;;;;;;27.47;45.90;99195.28;5091660;28;20536;-77
2023/08/03 06:31:53;;;;;;;6.95;1.98;;;;;;;27.44;45.67;99199.09;5091975;28;20027;-77
2023/08/03 06:34:18;;;;;;;5.18;1.77;;;;;;;27.43;46.08;99202.78;5090745;28;20035;-77
2023/08/03 06:36:44;;;;;;;7.47;2.00;;;;;;;27.43;45.86;99204.59;5092208;28;20084;-78
2023/08/03 06:39:10;;;;;;;7.80;1.95;;;;;;;27.44;45.72;99211.63;5091795;28;20040;-77
2023/08/03 06:41:35;;;;;;;6.90;2.53;;;;;;;27.48;45.83;99210.38;5092096;28;20028;-78
2023/08/03 06:44:01;;;;;;;7.53;1.90;;;;;;;27.42;45.88;99213.63;5091489;28;20409;-76
2023/08/03 06:46:27;;;;;;;5.30;2.00;;;;;;;27.40;45.95;99207.56;5091959;28;20028;-77
2023/08/03 06:48:53;;;;;;;7.93;1.77;;;;;;;27.45;46.12;99205.31;5091932;28;20023;-77
2023/08/03 06:51:20;;;;;;;7.57;2.20;;;;;;;27.42;46.15;99201.09;5091808;28;20024;-76
2023/08/03 06:53:47;;;;;;;6.57;1.83;;;;;;;27.40;45.98;99203.03;5091925;28;20032;-76
2023/08/03 06:56:12;;;;;;;8.35;2.65;;;;;;;27.41;46.13;99214.63;5091678;28;20034;-77
2023/08/03 06:58:38;;;;;;;6.57;1.90;;;;;;;27.40;45.81;99207.56;5091185;28;20103;-76
2023/08/03 07:01:03;;;;;;;4.88;1.65;;;;;;;27.36;46.07;99212.38;5091789;28;20040;-76
2023/08/03 07:03:30;;;;;;;5.65;1.55;;;;;;;27.36;45.79;99211.50;5091683;28;20026;-76
2023/08/03 07:05:55;;;;;;;8.43;1.83;;;;;;;27.34;46.08;99209.81;5090524;28;20024;-77
2023/08/03 07:08:21;;;;;;;6.90;2.00;;;;;;;27.38;45.69;99221.09;5091555;28;20101;-77
2023/08/03 07:10:46;;;;;;;5.47;1.65;;;;;;;27.37;46.14;99214.06;5091296;28;20031;-76
2023/08/03 07:13:13;;;;;;;5.95;1.95;;;;;;;27.36;45.93;99217.72;5106831;28;20046;-76
2023/08/03 07:15:39;;;;;;;6.63;1.90;;;;;;;27.41;45.66;99206.56;5091630;28;20040;-76
2023/08/03 07:18:06;;;;;;;7.60;2.08;;;;;;;27.43;45.77;99213.47;5091501;28;20020;-77
2023/08/03 07:20:31;;;;;;;7.30;2.47;;;;;;;27.40;45.68;99213.75;5091430;28;20019;-77
2023/08/03 07:22:57;;;;;;;8.13;2.38;;;;;;;27.40;45.98;99207.56;5091233;28;20470;-76
2023/08/03 07:25:23;;;;;;;7.82;1.95;;;;;;;27.45;45.47;99221.38;5091626;28;20032;-77
2023/08/03 07:27:50;;;;;;;5.32;1.88;;;;;;;27.44;45.83;99215.16;5091227;28;20099;-77
2023/08/03 07:30:16;;;;;;;7.03;2.00;;;;;;;27.45;45.57;99221.38;5085218;28;20103;-77
2023/08/03 07:32:42;;;;;;;7.38;1.77;;;;;;;27.47;45.58;99214.03;5095317;28;20520;-76
2023/08/03 07:35:07;;;;;;;7.55;2.08;;;;;;;27.47;45.41;99214.03;5095307;28;20028;-75
2023/08/03 07:37:33;;;;;;;5.88;2.03;;;;;;;27.47;45.77;99217.56;5095396;28;20047;-77
2023/08/03 07:39:58;;;;;;;5.80;1.75;;;;;;;27.48;45.50;99221.09;5095137;28;20069;-77
2023/08/03 07:42:23;;;;;;;8.10;1.95;;;;;;;27.47;45.39;99219.41;5094394;28;20404;-77
2023/08/03 07:44:53;;;;;;;5.80;1.65;;;;;;;27.49;45.76;99228.13;5094979;28;20035;-77
2023/08/03 07:47:20;;;;;;;6.68;1.92;;;;;;;27.47;45.47;99235.47;5095165;28;20114;-76
2023/08/03 07:49:45;;;;;;;6.10;2.35;;;;;;;27.50;45.18;99229.81;5094800;28;20070;-77
2023/08/03 07:52:10;;;;;;;9.05;2.17;;;;;;;27.50;45.29;99229.81;5094904;28;20020;-77
2023/08/03 07:54:36;;;;;;;7.60;1.98;;;;;;;27.49;45.17;99228.13;5094841;28;20058;-77
2023/08/03 07:57:01;;;;;;;6.60;1.70;;;;;;;27.49;45.46;99225.47;5094308;28;20028;-77
2023/08/03 07:59:27;;;;;;;6.15;1.83;;;;;;;27.51;45.35;99223.50;5094531;28;20024;-76
2023/08/03 08:01:52;;;;;;;6.10;2.00;;;;;;;27.51;45.36;99226.19;5094762;28;20058;-77
2023/08/03 08:04:18;;;;;;;6.40;1.70;;;;;;;27.50;45.24;99224.47;5094296;28;20027;-77
2023/08/03 08:06:44;;;;;;;7.80;2.20;;;;;;;27.49;45.28;99228.13;5094510;28;20024;-77
2023/08/03 08:09:10;;;;;;;4.85;1.52;;;;;;;27.51;45.35;99219.97;5094374;28;20039;-77
2023/08/03 08:11:36;;;;;;;7.53;2.00;;;;;;;27.50;45.52;99229.00;5094354;28;20396;-77
2023/08/03 08:14:01;;;;;;;7.90;1.95;;;;;;;27.51;45.38;99226.19;5094376;28;20488;-76
2023/08/03 08:16:28;;;;;;;7.47;1.88;;;;;;;27.52;45.25;99227.88;5094510;28;20494;-77
2023/08/03 08:18:54;;;;;;;7.57;2.03;;;;;;;27.52;45.10;99222.50;5094342;28;20426;-77
2023/08/03 08:21:19;;;;;;;5.90;1.90;;;;;;;27.53;45.24;99218.84;5094144;28;20024;-77
2023/08/03 08:23:44;;;;;;;6.00;1.67;;;;;;;27.54;45.27;99231.25;5093976;28;20028;-76
2023/08/03 08:26:14;;;;;;;6.88;1.75;;;;;;;27.55;44.96;99226.72;5093596;28;20024;-76
2023/08/03 08:28:41;;;;;;;4.20;1.40;;;;;;;27.54;45.40;99220.50;5094079;28;20066;-77
2023/08/03 08:31:06;;;;;;;5.47;1.70;;;;;;;27.53;44.85;99221.50;5093956;28;20090;-77
2023/08/03 08:33:32;;;;;;;5.82;1.63;;;;;;;27.54;44.97;99225.88;5094209;28;20481;-77
2023/08/03 08:35:57;;;;;;;7.38;1.83;;;;;;;27.56;45.33;99223.88;5094119;28;20091;-76
2023/08/03 08:38:23;;;;;;;4.88;1.80;;;;;;;27.54;44.96;99225.88;5093997;28;20020;-77
2023/08/03 08:40:48;;;;;;;4.90;1.73;;;;;;;27.56;44.90;99229.25;5092576;28;20392;-77
2023/08/03 08:43:14;;;;;;;7.28;1.63;;;;;;;27.56;44.98;99223.06;5093693;28;20052;-78
2023/08/03 08:45:40;;;;;;;6.93;1.80;;;;;;;27.56;45.34;99228.41;5092554;28;20034;-76
2023/08/03 08:48:05;;;;;;;5.05;1.30;;;;;;;27.55;44.85;99227.56;5093650;28;20020;-77
2023/08/03 08:50:32;;;;;;;6.13;1.50;;;;;;;27.55;45.05;99230.25;5093924;28;20430;-77
2023/08/03 08:52:58;;;;;;;6.65;2.28;;;;;;;27.54;45.10;99220.50;5093605;28;20024;-77
2023/08/03 08:55:28;;;;;;;5.30;1.95;;;;;;;27.56;45.22;99220.38;5093408;28;20065;-77
2023/08/03 08:57:55;;;;;;;4.40;1.40;;;;;;;27.55;44.87;99224.88;5093663;28;20019;-77
2023/08/03 09:00:24;;;;;;;4.72;1.45;;;;;;;27.58;45.08;99227.31;5093542;28;20047;-77
2023/08/03 09:02:54;;;;;;;5.35;1.50;;;;;;;27.58;44.91;99221.97;5092316;28;20074;-77
2023/08/03 09:05:20;;;;;;;6.13;1.90;;;;;;;27.57;44.96;99230.97;5093817;28;20472;-77
2023/08/03 09:07:59;;;;;;;5.82;1.38;;;;;;;27.56;44.66;99234.59;5093287;28;20058;-77
2023/08/03 09:10:25;;;;;;;5.57;1.60;;;;;;;27.60;45.20;99228.00;5093519;28;20027;-77
2023/08/03 09:12:50;;;;;;;5.03;1.65;;;;;;;27.59;44.64;99223.66;5093498;28;20012;-77
2023/08/03 09:15:16;;;;;;;7.25;1.70;;;;;;;27.60;45.10;99228.00;5093360;28;20468;-77
2023/08/03 09:17:44;;;;;;;4.10;1.38;;;;;;;27.62;44.92;99227.88;5093311;28;20027;-77
2023/08/03 09:20:25;;;;;;;5.65;1.42;;;;;;;27.61;44.64;99226.19;5093282;28;20016;-78
2023/08/03 09:22:51;;;;;;;4.93;2.03;;;;;;;27.60;44.63;99222.66;5092865;28;20023;-77
2023/08/03 09:25:16;;;;;;;4.38;1.20;;;;;;;27.60;44.92;99225.34;5092954;28;20480;-78
2023/08/03 09:27:50;;;;;;;5.88;1.98;;;;;;;27.61;45.01;99221.66;5093120;28;20024;-77
2023/08/03 09:30:16;;;;;;;5.82;1.77;;;;;;;27.63;44.92;99223.34;5093038;28;20107;-78
2023/08/03 09:32:41;;;;;;;5.55;1.80;;;;;;;27.62;44.88;99227.88;5093011;28;20502;-77
2023/08/03 09:35:21;;;;;;;5.82;1.85;;;;;;;27.60;44.52;99230.69;5093039;28;20052;-77
2023/08/03 09:37:48;;;;;;;4.82;1.65;;;;;;;27.60;44.66;99222.66;5092510;28;20030;-77
2023/08/03 09:40:18;;;;;;;4.65;1.65;;;;;;;27.60;44.75;99225.34;5093029;28;20490;-77
2023/08/03 09:42:44;;;;;;;6.80;1.75;;;;;;;27.63;44.83;99220.66;5092675;28;20024;-78
2023/08/03 09:45:10;;;;;;;5.78;1.58;;;;;;;27.60;44.82;99225.34;5092598;28;20499;-76
2023/08/03 09:47:36;;;;;;;7.03;1.75;;;;;;;27.60;44.84;99225.34;5092694;28;20043;-77
2023/08/03 09:50:08;;;;;;;6.65;1.90;;;;;;;27.61;44.72;99226.19;5091338;28;20028;-77
2023/08/03 09:52:45;;;;;;;6.90;1.90;;;;;;;27.63;44.83;99223.34;5091913;28;20055;-77
2023/08/03 09:55:18;;;;;;;5.60;2.03;;;;;;;27.60;44.45;99219.97;5092589;28;20017;-77
2023/08/03 09:58:00;;;;;;;4.90;1.48;;;;;;;27.61;44.81;99218.16;5092535;28;20035;-77
2023/08/03 10:00:26;;;;;;;5.28;1.55;;;;;;;27.59;44.39;99223.66;5092187;28;20135;-76
2023/08/03 10:02:57;;;;;;;3.67;1.25;;;;;;;27.62;44.39;99222.53;5092693;28;20438;-77
2023/08/03 10:05:26;;;;;;;6.75;1.77;;;;;;;27.62;44.54;99219.84;5092369;28;20035;-76
2023/08/03 10:07:59;;;;;;;5.72;1.63;;;;;;;27.63;44.72;99223.34;5092165;28;20495;-77
2023/08/03 10:10:29;;;;;;;4.53;1.45;;;;;;;27.63;44.18;99226.03;5092393;28;20123;-77
2023/08/03 10:13:02;;;;;;;4.57;1.42;;;;;;;27.64;44.68;99230.44;5092211;28;20054;-78
2023/08/03 10:15:27;;;;;;;5.43;1.48;;;;;;;27.65;44.45;99221.38;5092162;28;20584;-78
2023/08/03 10:17:54;;;;;;;5.15;1.45;;;;;;;27.64;43.83;99214.34;5092003;28;20024;-77
2023/08/03 10:20:21;;;;;;;5.85;1.40;;;;;;;27.66;43.75;99223.06;5091854;28;20009;-76
2023/08/03 10:23:08;;;;;;;4.75;1.52;;;;;;;27.66;44.17;99213.22;5091662;28;20452;-76
2023/08/03 10:25:33;;;;;;;4.38;1.65;;;;;;;27.65;44.00;99216.03;5092123;28;20024;-77
2023/08/03 10:28:14;;;;;;;3.80;1.55;;;;;;;27.65;43.61;99208.81;5092004;28;20096;-78
2023/08/03 10:31:02;;;;;;;4.72;1.38;;;;;;;27.71;43.93;99204.72;5086583;28;20028;-77
2023/08/03 10:33:45;;;;;;;4.70;1.20;;;;;;;27.72;44.03;99190.34;5091276;28;20070;-77
2023/08/03 10:36:30;;;;;;;5.60;1.42;;;;;;;27.70;44.51;99192.31;5087865;28;20024;-77
2023/08/03 10:39:07;;;;;;;4.32;1.45;;;;;;;27.69;44.42;99201.34;5085261;28;20021;-76
2023/08/03 10:41:37;;;;;;;3.10;1.27;;;;;;;27.69;44.46;99191.47;5087915;28;20065;-77
2023/08/03 10:44:05;;;;;;;5.70;1.42;;;;;;;27.68;44.61;99189.78;5086282;28;20073;-77
2023/08/03 10:46:38;;;;;;;4.10;1.60;;;;;;;27.70;44.59;99187.78;5091790;28;20024;-76
2023/08/03 10:49:22;;;;;;;2.83;1.20;;;;;;;27.69;44.46;99193.31;5091657;28;20094;-77
2023/08/03 10:51:51;;;;;;;6.05;1.48;;;;;;;27.69;44.13;99190.63;5082227;28;20024;-77
2023/08/03 10:54:36;;;;;;;5.47;1.20;;;;;;;27.69;44.26;99191.47;5091559;28;20051;-77
2023/08/03 10:57:13;;;;;;;3.83;1.07;;;;;;;27.69;44.50;99185.28;5086802;28;20074;-77
2023/08/03 10:59:40;;;;;;;5.97;1.63;;;;;;;27.70;44.58;99176.25;5091471;28;20289;-77
2023/08/03 11:02:22;;;;;;;5.13;1.60;;;;;;;27.69;44.54;99175.38;5091759;28;20028;-77
2023/08/03 11:04:52;;;;;;;3.80;1.27;;;;;;;27.70;44.42;99173.56;5094625;28;20058;-77
2023/08/03 11:07:23;;;;;;;4.25;1.55;;;;;;;27.70;44.38;99177.06;5095824;28;20016;-77
2023/08/03 11:09:52;;;;;;;4.63;1.33;;;;;;;27.72;44.52;99169.75;5095456;28;20016;-78
2023/08/03 11:12:18;;;;;;;4.25;1.27;;;;;;;27.72;44.27;99166.22;5095490;28;20028;-77
2023/08/03 11:14:49;;;;;;;4.88;1.50;;;;;;;27.74;44.02;99172.25;5094358;28;20035;-77
2023/08/03 11:17:15;;;;;;;4.93;1.70;;;;;;;27.73;44.22;99155.34;5095651;28;20035;-77
2023/08/03 11:19:43;;;;;;;5.53;1.40;;;;;;;27.75;44.08;99152.53;5095104;28;20399;-77
2023/08/03 11:22:08;;;;;;;5.05;1.42;;;;;;;27.76;44.15;99159.56;5095385;28;20028;-78
2023/08/03 11:24:34;;;;;;;4.97;1.40;;;;;;;27.76;44.40;99154.22;5095280;28;20023;-76
2023/08/03 11:27:00;;;;;;;4.93;1.50;;;;;;;27.78;44.51;99154.91;5094973;28;20081;-76
2023/08/03 11:29:26;;;;;;;5.03;1.40;;;;;;;27.79;44.19;99148.53;5095170;28;20019;-78
2023/08/03 11:31:51;;;;;;;4.22;1.45;;;;;;;27.79;44.18;99148.53;5095277;28;20437;-77